createdAt,value
2024-02-26T00:00:26.539Z,100045.69
2024-02-26T00:03:23.649Z,100039.69
2024-02-26T00:05:56.797Z,100038.38
2024-02-26T00:08:29.107Z,100033.66
2024-02-26T00:11:01.076Z,100030.63
2024-02-26T00:13:33.357Z,100027.78
2024-02-26T00:16:05.340Z,100024.78
2024-02-26T00:18:40.293Z,100029.78
2024-02-26T00:21:12.494Z,100027.44
2024-02-26T00:23:44.908Z,100023.22
2024-02-26T00:26:17.134Z,100028.41
2024-02-26T00:28:49.414Z,100024.97
2024-02-26T00:31:21.229Z,100019.22
2024-02-26T00:33:56.318Z,100031.97
2024-02-26T00:36:28.411Z,100028.66
2024-02-26T00:39:00.861Z,100022.44
2024-02-26T00:41:32.720Z,100024.06
2024-02-26T00:44:05.074Z,100013.91
2024-02-26T00:46:37.343Z,100012.06
2024-02-26T00:49:12.793Z,100011.09
2024-02-26T00:51:45.083Z,100011.25
2024-02-26T00:54:40.214Z,100006.97
2024-02-26T00:57:13.359Z,100002.75
2024-02-26T00:59:45.856Z,100001.91
2024-02-26T01:02:17.812Z,99997.38
2024-02-26T01:04:52.875Z,100000.06
2024-02-26T01:07:25.012Z,99999.56
2024-02-26T01:09:57.295Z,100000.06
2024-02-26T01:12:29.762Z,100010.09
2024-02-26T01:15:02.475Z,100001.53
2024-02-26T01:17:34.907Z,100007.28
2024-02-26T01:20:11.336Z,100006.06
2024-02-26T01:22:43.155Z,100008.34
2024-02-26T01:25:15.533Z,100013.69
2024-02-26T01:27:47.354Z,100004.06
2024-02-26T01:30:20.288Z,100007.88
2024-02-26T01:32:52.378Z,100007.31
2024-02-26T01:35:27.813Z,100000.38
2024-02-26T01:38:00.360Z,100004.16
2024-02-26T01:40:32.701Z,99993.63
2024-02-26T01:43:04.860Z,99987.50
2024-02-26T01:45:36.951Z,99979.94
2024-02-26T01:48:10.010Z,99991.09
2024-02-26T01:50:45.358Z,99980.56
2024-02-26T01:53:17.657Z,99989.00
2024-02-26T01:55:50.505Z,99999.19
2024-02-26T01:58:23.274Z,99998.88
2024-02-26T02:00:55.755Z,99998.38
2024-02-26T02:03:28.428Z,99999.38
2024-02-26T02:06:03.588Z,99998.88
2024-02-26T02:08:36.581Z,100000.31
2024-02-26T02:11:08.992Z,100005.00
2024-02-26T02:13:41.159Z,99999.66
2024-02-26T02:16:13.759Z,99998.28
2024-02-26T02:18:45.569Z,99990.56
2024-02-26T02:21:20.481Z,99987.81
2024-02-26T02:23:52.090Z,99993.06
2024-02-26T02:26:24.677Z,99992.84
2024-02-26T02:28:57.415Z,99996.38
2024-02-26T02:31:29.659Z,99993.00
2024-02-26T02:34:02.190Z,99996.53
2024-02-26T02:36:37.827Z,99993.31
2024-02-26T02:39:09.718Z,99992.91
2024-02-26T02:41:41.626Z,99994.75
2024-02-26T02:44:13.218Z,99994.41
2024-02-26T02:46:45.068Z,99994.56
2024-02-26T02:49:17.658Z,99995.84
2024-02-26T02:51:52.234Z,100006.13
2024-02-26T02:57:16.131Z,100005.91
2024-02-26T02:59:48.195Z,100006.66
2024-02-26T03:02:19.994Z,100003.97
2024-02-26T03:04:51.942Z,100004.13
2024-02-26T03:07:26.581Z,100013.28
2024-02-26T03:10:01.716Z,100007.66
2024-02-26T03:12:34.731Z,100012.28
2024-02-26T03:15:06.764Z,100014.94
2024-02-26T03:17:38.904Z,100010.41
2024-02-26T03:20:12.684Z,100007.53
2024-02-26T03:22:47.191Z,100007.81
2024-02-26T03:25:18.860Z,100007.31
2024-02-26T03:27:51.563Z,100002.75
2024-02-26T03:30:23.181Z,100009.91
2024-02-26T03:32:55.604Z,100007.22
2024-02-26T03:35:27.161Z,100006.00
2024-02-26T03:38:01.674Z,99998.56
2024-02-26T03:40:34.111Z,100004.69
2024-02-26T03:43:08.758Z,100001.91
2024-02-26T03:45:40.503Z,100008.03
2024-02-26T03:48:12.885Z,100007.94
2024-02-26T03:50:48.781Z,100018.34
2024-02-26T03:53:27.172Z,100012.66
2024-02-26T03:55:58.774Z,100016.53
2024-02-26T03:58:30.697Z,100017.63
2024-02-26T04:01:04.979Z,100019.03
2024-02-26T04:03:40.482Z,100020.66
2024-02-26T04:06:15.805Z,100025.03
2024-02-26T04:08:50.381Z,100022.84
2024-02-26T04:11:23.492Z,100020.00
2024-02-26T04:13:55.881Z,100026.84
2024-02-26T04:16:27.544Z,100030.38
2024-02-26T04:18:59.490Z,100032.41
2024-02-26T04:21:31.325Z,100033.25
2024-02-26T04:24:06.737Z,100029.72
2024-02-26T04:26:39.494Z,100034.91
2024-02-26T04:29:11.776Z,100032.00
2024-02-26T04:31:44.292Z,100032.06
2024-02-26T04:34:16.533Z,100039.56
2024-02-26T04:36:49.365Z,100045.78
2024-02-26T04:39:25.055Z,100046.06
2024-02-26T04:41:57.034Z,100043.66
2024-02-26T04:44:29.332Z,100056.31
2024-02-26T04:47:03.227Z,100060.75
2024-02-26T04:49:35.501Z,100063.97
2024-02-26T04:52:18.041Z,100063.66
2024-02-26T04:54:56.174Z,100060.03
2024-02-26T04:57:28.222Z,100060.38
2024-02-26T05:00:00.498Z,100058.66
2024-02-26T05:02:34.816Z,100057.75
2024-02-26T05:05:11.629Z,100063.00
2024-02-26T05:07:47.006Z,100067.19
2024-02-26T05:10:21.916Z,100064.72
2024-02-26T05:12:53.735Z,100070.41
2024-02-26T05:15:25.628Z,100074.53
2024-02-26T05:17:57.205Z,100075.00
2024-02-26T05:20:29.294Z,100079.50
2024-02-26T05:25:50.174Z,100093.69
2024-02-26T05:28:22.025Z,100090.53
2024-02-26T05:30:54.735Z,100088.50
2024-02-26T05:33:26.769Z,100089.47
2024-02-26T05:36:05.498Z,100081.09
2024-02-26T05:38:37.269Z,100087.19
2024-02-26T05:41:12.134Z,100098.03
2024-02-26T05:43:43.849Z,100095.94
2024-02-26T05:46:16.924Z,100092.44
2024-02-26T05:48:48.684Z,100095.38
2024-02-26T05:51:20.926Z,100102.31
2024-02-26T05:53:56.243Z,100102.50
2024-02-26T05:56:31.343Z,100099.94
2024-02-26T05:59:03.655Z,100102.91
2024-02-26T06:01:35.653Z,100106.25
2024-02-26T06:04:07.600Z,100115.50
2024-02-26T06:06:42.632Z,100116.63
2024-02-26T06:09:15.504Z,100108.66
2024-02-26T06:11:50.025Z,100114.22
2024-02-26T06:14:22.225Z,100116.47
2024-02-26T06:16:54.116Z,100117.09
2024-02-26T06:19:26.228Z,100128.91
2024-02-26T06:22:07.295Z,100121.50
2024-02-26T06:24:38.763Z,100124.41
2024-02-26T06:27:13.932Z,100125.03
2024-02-26T06:29:45.470Z,100115.44
2024-02-26T06:32:18.395Z,100128.94
2024-02-26T06:34:50.524Z,100127.38
2024-02-26T06:37:23.524Z,100133.31
2024-02-26T06:39:55.736Z,100133.88
2024-02-26T06:42:30.910Z,100139.34
2024-02-26T06:45:02.755Z,100139.72
2024-02-26T06:47:37.425Z,100139.34
2024-02-26T06:50:09.632Z,100141.78
2024-02-26T06:52:45.891Z,100158.38
2024-02-26T06:55:17.472Z,100160.84
2024-02-26T06:57:52.512Z,100159.44
2024-02-26T07:00:25.242Z,100159.44
2024-02-26T07:02:57.666Z,100167.34
2024-02-26T07:05:29.735Z,100169.13
2024-02-26T07:08:05.332Z,100170.38
2024-02-26T07:10:37.373Z,100170.16
2024-02-26T07:13:13.906Z,100174.34
2024-02-26T07:15:45.930Z,100179.22
2024-02-26T07:18:18.300Z,100182.69
2024-02-26T07:20:50.377Z,100187.75
2024-02-26T07:26:09.811Z,100173.72
2024-02-26T07:28:44.932Z,100173.28
2024-02-26T07:31:18.753Z,100179.53
2024-02-26T07:33:55.384Z,100185.69
2024-02-26T07:36:29.249Z,100184.97
2024-02-26T07:39:02.772Z,100186.19
2024-02-26T07:41:34.752Z,100182.56
2024-02-26T07:44:10.756Z,100173.84
2024-02-26T07:46:42.951Z,100175.06
2024-02-26T07:52:17.596Z,100184.53
2024-02-26T08:02:05.180Z,100181.59
2024-02-26T08:04:52.667Z,100179.66
2024-02-26T08:07:27.745Z,100183.38
2024-02-26T08:10:02.771Z,100191.25
2024-02-26T08:12:38.193Z,100186.78
2024-02-26T08:15:12.973Z,100180.47
2024-02-26T08:17:49.344Z,100189.84
2024-02-26T08:20:22.240Z,100195.44
2024-02-26T08:22:55.529Z,100181.91
2024-02-26T08:25:29.624Z,100183.59
2024-02-26T08:28:03.256Z,100183.66
2024-02-26T08:30:37.287Z,100192.28
2024-02-26T08:33:16.232Z,100195.19
2024-02-26T08:35:57.149Z,100191.19
2024-02-26T08:38:30.546Z,100189.03
2024-02-26T08:41:06.132Z,100184.47
2024-02-26T08:43:39.387Z,100190.25
2024-02-26T08:46:14.355Z,100178.22
2024-02-26T08:48:51.179Z,100185.56
2024-02-26T08:51:24.089Z,100174.72
2024-02-26T08:53:57.141Z,100180.91
2024-02-26T08:56:29.775Z,100183.31
2024-02-26T08:59:05.506Z,100184.78
2024-02-26T09:01:41.378Z,100179.66
2024-02-26T09:04:45.964Z,100182.81
2024-02-26T09:07:19.008Z,100177.69
2024-02-26T09:09:54.583Z,100172.47
2024-02-26T09:12:27.689Z,100174.50
2024-02-26T09:15:00.379Z,100173.91
2024-02-26T09:17:33.679Z,100170.19
2024-02-26T09:20:10.954Z,100178.09
2024-02-26T09:22:44.243Z,100169.56
2024-02-26T09:25:18.578Z,100176.97
2024-02-26T09:27:52.377Z,100175.19
2024-02-26T09:30:27.012Z,100180.53
2024-02-26T09:33:14.174Z,100185.41
2024-02-26T09:35:49.540Z,100188.78
2024-02-26T09:38:21.947Z,100186.84
2024-02-26T09:40:56.090Z,100190.25
2024-02-26T09:43:28.392Z,100191.25
2024-02-26T09:46:04.017Z,100190.72
2024-02-26T09:48:39.499Z,100190.16
2024-02-26T09:51:17.444Z,100187.22
2024-02-26T09:53:55.868Z,100187.97
2024-02-26T09:56:28.709Z,100195.53
2024-02-26T09:59:02.526Z,100197.72
2024-02-26T10:01:40.907Z,100192.53
2024-02-26T10:04:15.639Z,100192.69
2024-02-26T10:06:52.350Z,100210.66
2024-02-26T10:09:25.136Z,100201.63
2024-02-26T10:11:59.575Z,100199.19
2024-02-26T10:14:32.091Z,100207.41
2024-02-26T10:17:06.399Z,100198.78
2024-02-26T10:19:39.773Z,100197.00
2024-02-26T10:22:15.561Z,100199.69
2024-02-26T10:24:47.761Z,100196.34
2024-02-26T10:27:20.909Z,100198.59
2024-02-26T10:29:54.885Z,100206.81
2024-02-26T10:32:28.169Z,100197.94
2024-02-26T10:35:00.955Z,100197.81
2024-02-26T10:37:36.145Z,100202.69
2024-02-26T10:40:10.720Z,100199.19
2024-02-26T10:42:43.907Z,100194.69
2024-02-26T10:45:17.074Z,100193.59
2024-02-26T10:47:51.646Z,100202.00
2024-02-26T10:50:26.760Z,100206.66
2024-02-26T10:53:05.752Z,100204.59
2024-02-26T10:55:39.676Z,100200.38
2024-02-26T10:58:13.678Z,100205.16
2024-02-26T11:00:50.982Z,100193.06
2024-02-26T11:03:25.144Z,100206.50
2024-02-26T11:05:58.107Z,100207.28
2024-02-26T11:08:37.050Z,100198.22
2024-02-26T11:11:14.640Z,100197.44
2024-02-26T11:13:52.836Z,100203.53
2024-02-26T11:16:26.388Z,100196.28
2024-02-26T11:19:02.454Z,100197.72
2024-02-26T11:21:40.155Z,100198.50
2024-02-26T11:24:20.022Z,100202.25
2024-02-26T11:27:00.685Z,100206.09
2024-02-26T11:29:39.289Z,100200.50
2024-02-26T11:32:15.878Z,100208.22
2024-02-26T11:34:50.612Z,100202.84
2024-02-26T11:37:24.229Z,100197.84
2024-02-26T11:39:59.891Z,100206.75
2024-02-26T11:42:36.857Z,100197.13
2024-02-26T11:45:47.470Z,100203.63
2024-02-26T11:48:21.158Z,100194.66
2024-02-26T11:50:55.679Z,100192.16
2024-02-26T11:53:42.130Z,100194.06
2024-02-26T11:56:39.498Z,100197.81
2024-02-26T11:59:15.394Z,100198.25
2024-02-26T12:01:51.209Z,100198.41
2024-02-26T12:04:27.161Z,100196.81
2024-02-26T12:07:01.925Z,100197.66
2024-02-26T12:09:41.616Z,100197.59
2024-02-26T12:12:28.323Z,100196.81
2024-02-26T12:15:02.197Z,100193.72
2024-02-26T12:17:37.240Z,100191.19
2024-02-26T12:20:17.513Z,100186.97
2024-02-26T12:22:51.659Z,100194.72
2024-02-26T12:25:28.101Z,100193.00
2024-02-26T12:28:04.721Z,100196.66
2024-02-26T12:30:38.338Z,100203.22
2024-02-26T12:33:15.857Z,100195.56
2024-02-26T12:35:51.951Z,100205.16
2024-02-26T12:38:25.705Z,100210.13
2024-02-26T12:41:00.829Z,100213.47
2024-02-26T12:43:36.418Z,100209.56
2024-02-26T12:46:11.413Z,100207.88
2024-02-26T12:48:44.157Z,100214.06
2024-02-26T12:51:18.732Z,100209.09
2024-02-26T12:56:45.749Z,100205.78
2024-02-26T12:59:21.093Z,100207.75
2024-02-26T13:01:59.215Z,100205.19
2024-02-26T13:04:35.661Z,100192.44
2024-02-26T13:07:12.353Z,100209.03
2024-02-26T13:09:47.737Z,100203.09
2024-02-26T13:12:37.089Z,100205.78
2024-02-26T13:15:18.755Z,100196.84
2024-02-26T13:17:53.388Z,100197.69
2024-02-26T13:20:33.631Z,100199.75
2024-02-26T13:23:07.622Z,100200.19
2024-02-26T13:25:44.107Z,100213.94
2024-02-26T13:28:22.313Z,100200.34
2024-02-26T13:31:09.533Z,100202.69
2024-02-26T13:33:46.431Z,100205.25
2024-02-26T13:36:21.169Z,100210.16
2024-02-26T13:39:00.392Z,100209.94
2024-02-26T13:41:38.236Z,100196.19
2024-02-26T13:44:15.053Z,100199.56
2024-02-26T13:46:52.380Z,100199.75
2024-02-26T13:49:25.254Z,100203.72
2024-02-26T13:52:02.057Z,100205.75
2024-02-26T13:54:36.911Z,100208.28
2024-02-26T13:57:12.154Z,100208.25
2024-02-26T13:59:44.940Z,100214.41
2024-02-26T14:02:25.167Z,100222.38
2024-02-26T14:04:57.708Z,100220.91
2024-02-26T14:07:31.794Z,100229.44
2024-02-26T14:10:07.611Z,100229.03
2024-02-26T14:12:40.800Z,100242.59
2024-02-26T14:15:15.179Z,100253.25
2024-02-26T14:17:56.042Z,100261.81
2024-02-26T14:20:30.912Z,100249.75
2024-02-26T14:23:04.470Z,100255.28
2024-02-26T14:25:45.074Z,100272.31
2024-02-26T14:28:29.223Z,100271.97
2024-02-26T14:31:13.801Z,100282.25
2024-02-26T14:33:56.476Z,100276.09
2024-02-26T14:36:29.690Z,100281.47
2024-02-26T14:39:02.815Z,100286.28
2024-02-26T14:41:35.631Z,100292.75
2024-02-26T14:44:08.831Z,100292.59
2024-02-26T14:46:41.587Z,100298.16
2024-02-26T14:49:17.440Z,100293.66
2024-02-26T14:51:50.353Z,100304.59
2024-02-26T14:54:23.386Z,100307.16
2024-02-26T14:56:56.586Z,100310.53
2024-02-26T14:59:29.666Z,100314.91
2024-02-26T15:02:04.385Z,100316.81
2024-02-26T15:04:59.736Z,100317.81
2024-02-26T15:07:33.171Z,100320.69
2024-02-26T15:10:05.947Z,100316.84
2024-02-26T15:12:39.362Z,100317.97
2024-02-26T15:15:13.323Z,100318.47
2024-02-26T15:17:49.629Z,100321.75
2024-02-26T15:20:27.126Z,100322.44
2024-02-26T15:23:00.754Z,100322.53
2024-02-26T15:25:35.739Z,100321.25
2024-02-26T15:28:13.990Z,100322.00
2024-02-26T15:30:53.630Z,100321.81
2024-02-26T15:33:29.735Z,100329.88
2024-02-26T15:36:07.013Z,100329.72
2024-02-26T15:38:41.657Z,100327.75
2024-02-26T15:41:19.024Z,100336.28
2024-02-26T15:43:53.356Z,100335.88
2024-02-26T15:46:26.268Z,100350.97
2024-02-26T15:48:59.944Z,100355.75
2024-02-26T15:51:36.988Z,100346.97
2024-02-26T15:54:10.115Z,100349.31
2024-02-26T15:56:46.120Z,100345.31
2024-02-26T15:59:19.202Z,100348.03
2024-02-26T16:01:52.194Z,100359.31
2024-02-26T16:04:28.610Z,100366.81
2024-02-26T16:07:10.628Z,100358.06
2024-02-26T16:09:44.499Z,100362.06
2024-02-26T16:12:23.619Z,100365.56
2024-02-26T16:14:57.414Z,100371.44
2024-02-26T16:17:33.258Z,100369.06
2024-02-26T16:20:10.373Z,100363.91
2024-02-26T16:22:45.772Z,100369.25
2024-02-26T16:25:19.441Z,100369.81
2024-02-26T16:27:52.001Z,100385.78
2024-02-26T16:30:29.830Z,100380.97
2024-02-26T16:33:02.863Z,100385.69
2024-02-26T16:35:36.710Z,100390.81
2024-02-26T16:38:11.633Z,100391.91
2024-02-26T16:40:45.475Z,100390.91
2024-02-26T16:43:17.802Z,100392.94
2024-02-26T16:45:50.368Z,100399.16
2024-02-26T16:48:22.699Z,100394.81
2024-02-26T16:50:55.476Z,100405.97
2024-02-26T16:53:32.148Z,100407.53
2024-02-26T16:56:05.589Z,100406.13
2024-02-26T16:58:38.155Z,100401.38
2024-02-26T17:01:13.046Z,100403.78
2024-02-26T17:03:47.996Z,100409.78
2024-02-26T17:06:25.301Z,100401.19
2024-02-26T17:09:27.070Z,100409.09
2024-02-26T17:12:02.025Z,100410.97
2024-02-26T17:14:34.720Z,100405.41
2024-02-26T17:17:10.076Z,100410.72
2024-02-26T17:19:43.533Z,100423.09
2024-02-26T17:22:21.111Z,100425.16
2024-02-26T17:24:56.161Z,100431.19
2024-02-26T17:27:29.930Z,100433.91
2024-02-26T17:30:06.184Z,100433.84
2024-02-26T17:32:42.732Z,100433.75
2024-02-26T17:35:18.760Z,100448.22
2024-02-26T17:37:54.118Z,100450.25
2024-02-26T17:40:29.557Z,100445.97
2024-02-26T17:43:03.757Z,100450.25
2024-02-26T17:45:37.055Z,100468.56
2024-02-26T17:48:10.886Z,100472.00
2024-02-26T17:50:43.275Z,100479.91
2024-02-26T17:53:16.312Z,100486.19
2024-02-26T17:55:51.399Z,100496.66
2024-02-26T17:58:24.316Z,100510.69
2024-02-26T18:00:56.659Z,100519.28
2024-02-26T18:03:30.428Z,100519.72
2024-02-26T18:06:03.015Z,100522.47
2024-02-26T18:08:36.706Z,100532.06
2024-02-26T18:11:14.238Z,100521.94
2024-02-26T18:13:47.190Z,100522.66
2024-02-26T18:16:19.831Z,100530.66
2024-02-26T18:18:52.843Z,100521.94
2024-02-26T18:21:27.379Z,100530.31
2024-02-26T18:24:00.825Z,100535.88
2024-02-26T18:26:36.471Z,100544.91
2024-02-26T18:29:09.553Z,100551.03
2024-02-26T18:31:42.203Z,100548.91
2024-02-26T18:34:15.416Z,100555.16
2024-02-26T18:36:48.836Z,100561.50
2024-02-26T18:39:30.940Z,100557.22
2024-02-26T18:42:08.821Z,100565.63
2024-02-26T18:44:42.229Z,100561.66
2024-02-26T18:47:14.920Z,100560.88
2024-02-26T18:49:50.720Z,100568.88
2024-02-26T18:52:24.033Z,100566.78
2024-02-26T18:54:58.959Z,100569.16
2024-02-26T18:57:34.492Z,100577.97
2024-02-26T19:00:08.793Z,100574.00
2024-02-26T19:02:41.522Z,100566.16
2024-02-26T19:05:14.760Z,100566.44
2024-02-26T19:07:47.482Z,100574.63
2024-02-26T19:10:22.125Z,100573.53
2024-02-26T19:12:59.594Z,100570.16
2024-02-26T19:15:34.271Z,100571.31
2024-02-26T19:18:07.879Z,100571.66
2024-02-26T19:20:41.104Z,100568.50
2024-02-26T19:26:06.029Z,100572.00
2024-02-26T19:28:45.034Z,100571.34
2024-02-26T19:31:19.670Z,100565.78
2024-02-26T19:33:52.931Z,100574.06
2024-02-26T19:36:26.339Z,100573.81
2024-02-26T19:39:00.270Z,100576.44
2024-02-26T19:41:56.096Z,100583.25
2024-02-26T19:44:36.916Z,100590.47
2024-02-26T19:47:12.038Z,100593.50
2024-02-26T19:49:50.468Z,100589.63
2024-02-26T19:52:26.394Z,100583.41
2024-02-26T19:54:59.277Z,100589.13
2024-02-26T19:57:32.633Z,100577.53
2024-02-26T20:00:09.119Z,100573.06
2024-02-26T20:02:42.285Z,100575.81
2024-02-26T20:05:15.036Z,100587.47
2024-02-26T20:07:47.993Z,100598.38
2024-02-26T20:10:21.795Z,100598.56
2024-02-26T20:12:59.691Z,100593.31
2024-02-26T20:15:35.482Z,100600.94
2024-02-26T20:18:18.635Z,100604.69
2024-02-26T20:21:05.563Z,100607.88
2024-02-26T20:23:38.682Z,100609.22
2024-02-26T20:26:12.534Z,100610.16
2024-02-26T20:28:45.553Z,100621.91
2024-02-26T20:31:20.788Z,100623.31
2024-02-26T20:33:54.427Z,100625.00
2024-02-26T20:36:30.162Z,100620.44
2024-02-26T20:39:08.057Z,100625.31
2024-02-26T20:41:49.910Z,100631.38
2024-02-26T20:44:27.988Z,100643.22
2024-02-26T20:47:10.913Z,100641.44
2024-02-26T20:49:45.776Z,100648.69
2024-02-26T20:52:27.948Z,100646.97
2024-02-26T20:55:10.990Z,100647.75
2024-02-26T20:57:43.670Z,100654.00
2024-02-26T21:00:17.766Z,100646.66
2024-02-26T21:02:53.051Z,100667.72
2024-02-26T21:05:26.632Z,100665.53
2024-02-26T21:07:59.432Z,100671.41
2024-02-26T21:10:43.324Z,100669.53
2024-02-26T21:13:16.032Z,100680.88
2024-02-26T21:15:49.287Z,100676.09
2024-02-26T21:18:51.747Z,100677.09
2024-02-26T21:21:29.956Z,100679.78
2024-02-26T21:24:03.944Z,100679.22
2024-02-26T21:26:37.495Z,100687.84
2024-02-26T21:29:10.112Z,100685.81
2024-02-26T21:31:44.270Z,100690.19
2024-02-26T21:34:19.366Z,100698.00
2024-02-26T21:36:55.109Z,100698.84
2024-02-26T21:42:31.935Z,100701.78
2024-02-26T21:45:07.690Z,100702.03
2024-02-26T21:47:46.708Z,100708.00
2024-02-26T21:50:20.440Z,100708.84
2024-02-26T21:53:02.835Z,100715.00
2024-02-26T21:55:37.921Z,100724.69
2024-02-26T21:58:11.151Z,100720.03
2024-02-26T22:00:44.639Z,100726.00
2024-02-26T22:03:17.952Z,100730.38
2024-02-26T22:05:52.430Z,100736.78
2024-02-26T22:08:35.234Z,100738.75
2024-02-26T22:11:08.819Z,100731.38
2024-02-26T22:13:42.041Z,100732.84
2024-02-26T22:16:14.673Z,100730.28
2024-02-26T22:18:47.818Z,100739.44
2024-02-26T22:21:20.529Z,100737.53
2024-02-26T22:23:56.432Z,100738.38
2024-02-26T22:40:34.508Z,100746.47
2024-02-26T22:43:12.513Z,100751.63
2024-02-26T22:45:47.410Z,100750.91
2024-02-26T22:48:36.866Z,100747.22
2024-02-26T22:51:20.752Z,100750.66
2024-02-26T22:53:59.582Z,100742.69
2024-02-26T22:56:35.029Z,100740.81
2024-02-26T22:59:08.590Z,100745.94
2024-02-26T23:01:42.210Z,100756.06
2024-02-26T23:13:43.286Z,100758.13
2024-02-26T23:16:18.268Z,100753.50
2024-02-26T23:18:51.565Z,100754.00
2024-02-26T23:21:26.867Z,100752.75
2024-02-26T23:23:59.472Z,100763.59
2024-02-26T23:26:32.404Z,100759.63
2024-02-26T23:29:07.231Z,100767.34
2024-02-26T23:31:40.392Z,100766.84
2024-02-26T23:34:12.974Z,100779.00
2024-02-26T23:36:46.641Z,100774.66
2024-02-26T23:39:19.055Z,100772.47
2024-02-26T23:41:52.004Z,100776.00
2024-02-26T23:44:27.003Z,100777.25
2024-02-26T23:46:59.834Z,100779.84
2024-02-26T23:49:34.153Z,100778.78
2024-02-26T23:52:10.281Z,100778.69
2024-02-26T23:54:43.102Z,100778.56
2024-02-26T23:57:15.894Z,100779.78
2024-02-26T23:59:50.888Z,100784.78
